Aviation Digital Data Service (ADDS)

Output produced by TAFs form (0944 UTC 31 March 2015)
found at http://aviationweather.gov/adds/tafs/
 
KTUS 310540Z 3106/0106 23005KT P6SM FEW080 BKN120 OVC180 
     FM310800 14007KT P6SM BKN120 OVC180 
     FM311900 32008KT P6SM SCT090